createdAt,value
2022-09-13T00:00:54.259Z,2.63
2022-09-13T00:03:21.322Z,2.60
2022-09-13T00:05:48.655Z,2.30
2022-09-13T00:08:16.139Z,2.80
2022-09-13T00:10:44.286Z,2.50
2022-09-13T00:13:13.238Z,2.73
2022-09-13T00:15:58.550Z,2.30
2022-09-13T00:18:25.346Z,2.70
2022-09-13T00:20:52.155Z,2.20
2022-09-13T00:23:18.969Z,2.80
2022-09-13T00:25:45.759Z,2.47
2022-09-13T00:28:12.570Z,2.47
2022-09-13T00:30:39.402Z,2.60
2022-09-13T00:33:06.169Z,2.57
2022-09-13T00:35:34.146Z,2.80
2022-09-13T00:38:01.984Z,2.57
2022-09-13T00:40:30.579Z,2.77
2022-09-13T00:42:57.611Z,3.00
2022-09-13T00:45:24.529Z,2.40
2022-09-13T00:48:06.218Z,3.23
2022-09-13T00:50:46.036Z,3.17
2022-09-13T00:53:18.822Z,2.67
2022-09-13T00:56:00.923Z,2.90
2022-09-13T00:58:40.739Z,2.90
2022-09-13T01:01:11.498Z,3.20
2022-09-13T01:03:39.824Z,2.50
2022-09-13T01:06:14.046Z,3.37
2022-09-13T01:08:43.995Z,3.50
2022-09-13T01:11:17.862Z,3.30
2022-09-13T01:13:45.758Z,2.93
2022-09-13T01:16:12.654Z,3.17
2022-09-13T01:18:39.525Z,3.20
2022-09-13T01:21:26.549Z,3.10
2022-09-13T01:24:20.859Z,3.60
2022-09-13T01:27:35.304Z,3.17
2022-09-13T01:30:04.847Z,3.53
2022-09-13T01:32:43.369Z,3.03
2022-09-13T01:35:22.799Z,2.83
2022-09-13T01:38:21.122Z,2.40
2022-09-13T01:41:26.842Z,3.20
2022-09-13T01:44:18.619Z,3.20
2022-09-13T01:47:22.480Z,2.67
2022-09-13T01:50:22.086Z,3.10
2022-09-13T01:52:53.023Z,2.73
2022-09-13T01:55:45.002Z,3.20
2022-09-13T01:58:46.936Z,3.13
2022-09-13T02:01:36.468Z,3.33
2022-09-13T02:04:12.585Z,2.73
2022-09-13T02:07:04.082Z,3.10
2022-09-13T02:09:36.351Z,3.20
2022-09-13T02:12:19.275Z,2.93
2022-09-13T02:14:56.223Z,3.10
2022-09-13T02:17:26.337Z,2.80
2022-09-13T02:20:03.778Z,3.00
2022-09-13T02:22:41.995Z,2.60
2022-09-13T02:25:14.504Z,3.00
2022-09-13T02:27:45.214Z,3.60
2022-09-13T02:30:13.230Z,3.03
2022-09-13T02:32:42.449Z,3.70
2022-09-13T02:35:12.624Z,2.90
2022-09-13T02:37:42.683Z,3.00
2022-09-13T02:40:17.347Z,4.10
2022-09-13T02:43:19.257Z,2.83
2022-09-13T02:45:57.227Z,3.37
2022-09-13T02:48:50.704Z,2.93
2022-09-13T02:51:52.415Z,3.20
2022-09-13T02:54:30.640Z,3.40
2022-09-13T02:57:25.482Z,3.10
2022-09-13T02:59:52.328Z,2.60
2022-09-13T03:02:25.283Z,2.53
2022-09-13T03:04:52.394Z,3.10
2022-09-13T03:07:19.682Z,3.00
2022-09-13T03:09:52.320Z,3.47
2022-09-13T03:12:47.147Z,3.30
2022-09-13T03:15:22.793Z,3.10
2022-09-13T03:17:55.133Z,3.43
2022-09-13T03:20:48.167Z,3.73
2022-09-13T03:23:46.245Z,3.10
2022-09-13T03:26:21.807Z,3.47
2022-09-13T03:29:00.498Z,2.87
2022-09-13T03:31:51.506Z,3.20
2022-09-13T03:34:40.504Z,2.80
2022-09-13T03:37:32.575Z,3.10
2022-09-13T03:40:30.419Z,2.97
2022-09-13T03:43:15.371Z,3.27
2022-09-13T03:45:56.377Z,3.80
2022-09-13T03:48:24.338Z,3.37
2022-09-13T03:50:52.068Z,3.03
2022-09-13T03:53:24.030Z,3.30
2022-09-13T03:55:50.885Z,3.33
2022-09-13T03:58:19.735Z,3.10
2022-09-13T04:00:46.850Z,3.27
2022-09-13T04:03:14.529Z,3.10
2022-09-13T04:05:41.697Z,3.13
2022-09-13T04:08:08.628Z,3.10
2022-09-13T04:10:36.574Z,2.93
2022-09-13T04:13:03.850Z,2.83
2022-09-13T04:15:31.355Z,3.33
2022-09-13T04:17:58.617Z,3.20
2022-09-13T04:20:26.003Z,3.40
2022-09-13T04:22:54.053Z,3.07
2022-09-13T04:25:22.445Z,3.53
2022-09-13T04:27:54.261Z,3.80
2022-09-13T04:30:22.020Z,3.80
2022-09-13T04:32:48.931Z,3.40
2022-09-13T04:35:17.669Z,3.70
2022-09-13T04:37:44.460Z,3.53
2022-09-13T04:40:12.181Z,3.63
2022-09-13T04:42:39.091Z,3.83
2022-09-13T04:45:06.693Z,3.17
2022-09-13T04:47:33.483Z,3.77
2022-09-13T04:50:00.478Z,4.13
2022-09-13T04:52:27.455Z,3.73
2022-09-13T04:54:54.686Z,3.47
2022-09-13T04:57:22.845Z,3.60
2022-09-13T04:59:49.697Z,3.50
2022-09-13T05:02:16.609Z,3.13
2022-09-13T05:04:43.569Z,3.70
2022-09-13T05:07:10.432Z,3.67
2022-09-13T05:09:37.310Z,3.77
2022-09-13T05:12:04.642Z,3.63
2022-09-13T05:14:31.438Z,3.80
2022-09-13T05:16:58.246Z,3.60
2022-09-13T05:19:25.092Z,3.90
2022-09-13T05:21:51.882Z,4.13
2022-09-13T05:24:18.692Z,4.30
2022-09-13T05:26:45.501Z,4.30
2022-09-13T05:29:12.313Z,4.57
2022-09-13T05:31:41.168Z,4.40
2022-09-13T05:34:14.410Z,4.30
2022-09-13T05:36:41.609Z,4.07
2022-09-13T05:39:36.333Z,4.80
2022-09-13T05:42:00.719Z,4.13
2022-09-13T05:44:27.550Z,4.43
2022-09-13T05:46:54.334Z,4.37
2022-09-13T05:49:21.150Z,4.33
2022-09-13T05:51:47.996Z,4.23
2022-09-13T05:54:14.883Z,3.83
2022-09-13T05:56:41.758Z,3.97
2022-09-13T05:59:13.799Z,3.70
2022-09-13T06:01:40.761Z,4.50
2022-09-13T06:04:07.662Z,5.07
2022-09-13T06:06:35.510Z,4.13
2022-09-13T06:09:02.509Z,4.53
2022-09-13T06:11:29.365Z,4.20
2022-09-13T06:13:56.205Z,3.90
2022-09-13T06:16:23.111Z,4.00
2022-09-13T06:18:50.310Z,3.83
2022-09-13T06:21:20.419Z,4.10
2022-09-13T06:23:52.830Z,3.80
2022-09-13T06:26:22.365Z,3.30
2022-09-13T06:28:51.582Z,3.20
2022-09-13T06:31:20.769Z,2.73
2022-09-13T06:33:47.635Z,2.47
2022-09-13T06:36:20.172Z,2.70
2022-09-13T06:38:51.256Z,2.93
2022-09-13T06:41:20.662Z,2.63
2022-09-13T06:43:48.161Z,2.97
2022-09-13T06:46:24.615Z,2.70
2022-09-13T06:48:52.745Z,2.50
2022-09-13T06:51:22.623Z,2.73
2022-09-13T06:53:50.068Z,2.30
2022-09-13T06:56:17.896Z,3.10
2022-09-13T06:58:46.664Z,2.70
2022-09-13T07:01:13.580Z,2.50
2022-09-13T07:04:07.363Z,2.70
2022-09-13T07:06:39.727Z,2.40
2022-09-13T07:09:09.939Z,2.30
2022-09-13T07:11:39.154Z,2.50
2022-09-13T07:14:06.915Z,2.20
2022-09-13T07:16:37.206Z,2.70
2022-09-13T07:19:06.539Z,2.30
2022-09-13T07:21:34.684Z,2.30
2022-09-13T07:24:01.868Z,2.47
2022-09-13T07:26:29.003Z,2.60
2022-09-13T07:29:01.345Z,2.13
2022-09-13T07:31:31.710Z,2.53
2022-09-13T07:34:01.103Z,2.60
2022-09-13T07:36:29.702Z,3.70
2022-09-13T07:38:57.334Z,3.30
2022-09-13T07:41:26.415Z,2.83
2022-09-13T07:43:53.606Z,2.83
2022-09-13T07:46:23.098Z,3.87
2022-09-13T07:48:53.318Z,2.83
2022-09-13T07:51:28.387Z,2.63
2022-09-13T07:53:58.061Z,3.40
2022-09-13T07:56:30.399Z,3.30
2022-09-13T07:59:00.965Z,3.10
2022-09-13T08:01:30.132Z,3.00
2022-09-13T08:04:09.467Z,3.47
2022-09-13T08:06:38.182Z,2.97
2022-09-13T08:09:06.471Z,3.30
2022-09-13T08:11:41.828Z,3.23
2022-09-13T08:14:11.690Z,2.67
2022-09-13T08:16:42.167Z,3.20
2022-09-13T08:19:13.043Z,3.17
2022-09-13T08:21:42.005Z,2.77
2022-09-13T08:24:19.943Z,2.60
2022-09-13T08:26:47.693Z,2.90
2022-09-13T08:29:15.402Z,2.27
2022-09-13T08:31:42.362Z,3.30
2022-09-13T08:34:15.151Z,3.20
2022-09-13T08:36:42.561Z,2.63
2022-09-13T08:39:10.827Z,2.67
2022-09-13T08:41:40.349Z,2.70
2022-09-13T08:44:26.739Z,3.60
2022-09-13T08:47:17.409Z,2.40
2022-09-13T08:49:52.095Z,2.90
2022-09-13T08:52:31.826Z,2.73
2022-09-13T08:55:02.155Z,2.70
2022-09-13T08:57:49.038Z,2.70
2022-09-13T09:00:23.193Z,2.67
2022-09-13T09:03:08.821Z,3.17
2022-09-13T09:05:49.181Z,2.37
2022-09-13T09:08:24.273Z,2.63
2022-09-13T09:10:55.601Z,2.73
2022-09-13T09:13:29.245Z,2.70
2022-09-13T09:16:01.395Z,2.60
2022-09-13T09:18:33.299Z,2.60
2022-09-13T09:21:01.865Z,2.63
2022-09-13T09:23:39.642Z,2.70
2022-09-13T09:26:29.129Z,2.20
2022-09-13T09:29:11.214Z,2.50
2022-09-13T09:31:59.602Z,2.50
2022-09-13T09:34:48.303Z,2.50
2022-09-13T09:37:26.399Z,2.27
2022-09-13T09:39:55.420Z,2.47
2022-09-13T09:42:29.514Z,2.40
2022-09-13T09:45:04.359Z,1.90
2022-09-13T09:47:46.286Z,2.60
2022-09-13T09:50:24.171Z,2.50
2022-09-13T09:53:06.665Z,2.33
2022-09-13T09:56:00.669Z,1.53
2022-09-13T09:58:47.785Z,1.93
2022-09-13T10:01:27.317Z,1.97
2022-09-13T10:03:58.450Z,2.60
2022-09-13T10:06:28.464Z,1.97
2022-09-13T10:09:07.591Z,2.80
2022-09-13T10:11:53.937Z,2.30
2022-09-13T10:14:27.306Z,2.37
2022-09-13T10:17:27.629Z,1.97
2022-09-13T10:20:04.249Z,1.87
2022-09-13T10:22:34.558Z,1.80
2022-09-13T10:25:25.510Z,2.20
2022-09-13T10:27:55.521Z,2.50
2022-09-13T10:30:40.800Z,1.90
2022-09-13T10:33:32.182Z,1.70
2022-09-13T10:36:48.117Z,2.00
2022-09-13T10:39:18.071Z,2.10
2022-09-13T10:41:55.543Z,2.07
2022-09-13T10:44:35.978Z,1.80
2022-09-13T10:47:06.762Z,2.10
2022-09-13T10:49:55.116Z,2.20
2022-09-13T10:52:28.058Z,1.80
2022-09-13T10:54:55.906Z,2.10
2022-09-13T10:57:35.187Z,2.40
2022-09-13T11:00:06.103Z,1.83
2022-09-13T11:03:00.803Z,2.23
2022-09-13T11:05:39.387Z,1.90
2022-09-13T11:08:39.240Z,1.87
2022-09-13T11:11:30.867Z,2.00
2022-09-13T11:14:12.022Z,2.00
2022-09-13T11:16:44.899Z,2.47
2022-09-13T11:19:14.456Z,2.40
2022-09-13T11:21:50.082Z,2.30
2022-09-13T11:24:46.759Z,2.00
2022-09-13T11:27:42.462Z,2.40
2022-09-13T11:30:15.878Z,2.30
2022-09-13T11:32:42.677Z,2.50
2022-09-13T11:35:31.429Z,2.10
2022-09-13T11:38:07.251Z,2.10
2022-09-13T11:40:39.978Z,3.23
2022-09-13T11:43:47.564Z,2.03
2022-09-13T11:46:52.136Z,2.40
2022-09-13T11:49:40.490Z,2.50
2022-09-13T11:52:16.478Z,1.87
2022-09-13T11:55:02.311Z,2.40
2022-09-13T11:57:37.090Z,2.40
2022-09-13T12:00:19.730Z,2.60
2022-09-13T12:03:11.454Z,2.20
2022-09-13T12:05:49.314Z,2.30
2022-09-13T12:08:27.882Z,2.27
2022-09-13T12:11:03.783Z,2.50
2022-09-13T12:13:49.713Z,2.50
2022-09-13T12:16:40.953Z,2.00
2022-09-13T12:19:25.634Z,2.10
2022-09-13T12:21:57.193Z,2.30
2022-09-13T12:24:34.539Z,2.50
2022-09-13T12:27:14.149Z,2.77
2022-09-13T12:29:49.861Z,3.10
2022-09-13T12:32:18.617Z,2.57
2022-09-13T12:34:57.198Z,2.70
2022-09-13T12:37:45.634Z,3.03
2022-09-13T12:40:54.029Z,2.60
2022-09-13T12:43:42.566Z,2.70
2022-09-13T12:46:24.402Z,2.80
2022-09-13T12:49:08.028Z,2.43
2022-09-13T12:52:11.511Z,2.70
2022-09-13T12:54:53.829Z,2.87
2022-09-13T12:57:42.196Z,2.80
2022-09-13T13:00:25.147Z,2.50
2022-09-13T13:03:15.636Z,2.90
2022-09-13T13:05:47.416Z,2.30
2022-09-13T13:08:20.189Z,2.50
2022-09-13T13:11:11.875Z,2.90
2022-09-13T13:13:41.551Z,2.60
2022-09-13T13:16:34.318Z,2.40
2022-09-13T13:19:29.288Z,2.33
2022-09-13T13:21:56.130Z,2.30
2022-09-13T13:24:22.934Z,2.30
2022-09-13T13:26:51.134Z,2.60
2022-09-13T13:29:19.890Z,2.47
2022-09-13T13:32:03.070Z,2.30
2022-09-13T13:34:50.695Z,2.60
2022-09-13T13:37:20.472Z,2.47
2022-09-13T13:39:49.756Z,2.20
2022-09-13T13:42:27.033Z,2.23
2022-09-13T13:44:53.807Z,2.30
2022-09-13T13:47:20.571Z,2.60
2022-09-13T13:49:52.557Z,2.77
2022-09-13T13:52:22.514Z,2.93
2022-09-13T13:54:57.361Z,2.70
2022-09-13T13:57:26.159Z,2.60
2022-09-13T14:00:27.010Z,3.07
2022-09-13T14:03:14.045Z,3.53
2022-09-13T14:06:02.248Z,2.87
2022-09-13T14:08:38.112Z,2.53
2022-09-13T14:11:28.677Z,2.90
2022-09-13T14:14:27.812Z,2.40
2022-09-13T14:17:18.616Z,3.13
2022-09-13T14:19:51.259Z,2.30
2022-09-13T14:22:25.913Z,2.87
2022-09-13T14:25:13.379Z,2.97
2022-09-13T14:27:44.054Z,2.50
2022-09-13T14:30:32.361Z,2.50
2022-09-13T14:32:59.692Z,2.43
2022-09-13T14:35:39.140Z,2.50
2022-09-13T14:38:26.246Z,2.77
2022-09-13T14:40:58.038Z,2.73
2022-09-13T14:43:29.898Z,3.17
2022-09-13T14:46:24.722Z,2.83
2022-09-13T14:49:17.519Z,2.70
2022-09-13T14:51:49.083Z,2.70
2022-09-13T14:54:21.594Z,2.77
2022-09-13T14:56:56.049Z,2.73
2022-09-13T14:59:33.787Z,2.80
2022-09-13T15:02:23.277Z,3.07
2022-09-13T15:05:00.930Z,2.60
2022-09-13T15:07:36.101Z,2.90
2022-09-13T15:10:22.787Z,3.03
2022-09-13T15:12:54.014Z,2.70
2022-09-13T15:15:24.129Z,2.57
2022-09-13T15:17:55.800Z,2.80
2022-09-13T15:20:23.992Z,2.73
2022-09-13T15:22:51.486Z,2.30
2022-09-13T15:25:25.962Z,3.07
2022-09-13T15:27:54.245Z,2.73
2022-09-13T15:30:25.883Z,2.50
2022-09-13T15:33:09.726Z,2.97
2022-09-13T15:35:41.822Z,3.00
2022-09-13T15:38:30.977Z,2.60
2022-09-13T15:41:21.803Z,2.57
2022-09-13T15:43:48.751Z,2.80
2022-09-13T15:46:16.928Z,3.10
2022-09-13T15:48:59.056Z,3.20
2022-09-13T15:51:26.600Z,3.10
2022-09-13T15:53:54.771Z,2.97
2022-09-13T15:56:26.863Z,3.10
2022-09-13T15:58:53.650Z,3.03
2022-09-13T16:01:20.561Z,4.53
2022-09-13T16:03:47.398Z,3.60
2022-09-13T16:06:14.242Z,3.47
2022-09-13T16:08:41.254Z,3.00
2022-09-13T16:11:08.373Z,2.67
2022-09-13T16:13:36.305Z,2.90
2022-09-13T16:16:05.157Z,2.90
2022-09-13T16:18:32.234Z,3.03
2022-09-13T16:20:59.038Z,3.50
2022-09-13T16:23:26.003Z,4.50
2022-09-13T16:25:56.234Z,4.60
2022-09-13T16:28:23.143Z,5.43
2022-09-13T16:30:50.431Z,5.27
2022-09-13T16:33:17.290Z,5.00
2022-09-13T16:35:44.227Z,5.80
2022-09-13T16:38:11.130Z,4.87
2022-09-13T16:40:45.261Z,4.20
2022-09-13T16:43:14.045Z,4.60
2022-09-13T16:45:41.783Z,3.00
2022-09-13T16:48:09.102Z,2.73
2022-09-13T16:50:39.117Z,3.07
2022-09-13T16:53:06.133Z,3.73
2022-09-13T16:55:33.066Z,2.93
2022-09-13T16:58:00.722Z,3.03
2022-09-13T17:00:28.770Z,3.63
2022-09-13T17:02:56.690Z,3.43
2022-09-13T17:05:24.466Z,3.23
2022-09-13T17:07:52.417Z,3.50
2022-09-13T17:10:20.407Z,3.27
2022-09-13T17:12:47.876Z,3.03
2022-09-13T17:15:14.698Z,2.97
2022-09-13T17:17:41.543Z,4.17
2022-09-13T17:20:12.121Z,3.20
2022-09-13T17:22:39.586Z,3.87
2022-09-13T17:25:07.987Z,2.87
2022-09-13T17:27:35.318Z,3.30
2022-09-13T17:30:04.957Z,3.37
2022-09-13T17:32:31.993Z,4.00
2022-09-13T17:34:59.220Z,3.03
2022-09-13T17:37:26.149Z,3.03
2022-09-13T17:39:52.978Z,3.60
2022-09-13T17:42:23.185Z,3.63
2022-09-13T17:44:50.782Z,4.53
2022-09-13T17:47:17.578Z,3.50
2022-09-13T17:49:45.601Z,3.53
2022-09-13T17:52:12.716Z,3.40
2022-09-13T17:54:39.852Z,4.63
2022-09-13T17:57:06.722Z,3.70
2022-09-13T17:59:34.194Z,3.20
2022-09-13T18:02:01.245Z,3.77
2022-09-13T18:04:28.214Z,3.20
2022-09-13T18:06:55.435Z,3.53
2022-09-13T18:09:22.699Z,3.73
2022-09-13T18:11:50.681Z,4.03
2022-09-13T18:14:19.203Z,4.50
2022-09-13T18:16:46.938Z,3.73
2022-09-13T18:19:14.110Z,3.53
2022-09-13T18:21:41.337Z,5.27
2022-09-13T18:24:08.338Z,4.33
2022-09-13T18:26:35.948Z,3.70
2022-09-13T18:29:06.070Z,3.70
2022-09-13T18:31:35.288Z,3.40
2022-09-13T18:34:05.073Z,4.17
2022-09-13T18:36:33.486Z,3.70
2022-09-13T18:39:04.852Z,4.17
2022-09-13T18:41:37.651Z,3.90
2022-09-13T18:44:07.562Z,4.40
2022-09-13T18:46:35.344Z,4.20
2022-09-13T18:49:03.392Z,3.77
2022-09-13T18:51:39.222Z,3.90
2022-09-13T18:54:07.459Z,4.20
2022-09-13T18:56:35.314Z,4.30
2022-09-13T18:59:04.952Z,4.00
2022-09-13T19:01:34.387Z,4.27
2022-09-13T19:04:08.368Z,3.73
2022-09-13T19:06:43.561Z,5.20
2022-09-13T19:09:11.142Z,3.90
2022-09-13T19:11:48.683Z,3.77
2022-09-13T19:14:23.657Z,3.93
2022-09-13T19:16:52.083Z,4.53
2022-09-13T19:19:19.128Z,4.20
2022-09-13T19:21:46.146Z,4.40
2022-09-13T19:24:18.178Z,3.80
2022-09-13T19:26:46.895Z,3.80
2022-09-13T19:29:16.759Z,3.33
2022-09-13T19:31:48.064Z,4.30
2022-09-13T19:34:17.441Z,4.60
2022-09-13T19:36:44.441Z,4.13
2022-09-13T19:39:12.198Z,4.20
2022-09-13T19:41:40.488Z,3.97
2022-09-13T19:44:08.549Z,4.20
2022-09-13T19:46:38.069Z,4.20
2022-09-13T19:49:05.804Z,4.67
2022-09-13T19:51:35.788Z,4.10
2022-09-13T19:54:03.849Z,4.47
2022-09-13T19:56:42.726Z,4.50
2022-09-13T19:59:13.473Z,4.20
2022-09-13T20:01:42.433Z,4.17
2022-09-13T20:04:14.958Z,3.70
2022-09-13T20:06:47.256Z,3.93
2022-09-13T20:09:15.902Z,4.50
2022-09-13T20:11:45.990Z,4.10
2022-09-13T20:14:15.128Z,4.43
2022-09-13T20:16:42.997Z,4.37
2022-09-13T20:19:39.091Z,4.10
2022-09-13T20:22:02.731Z,4.63
2022-09-13T20:24:29.579Z,3.97
2022-09-13T20:26:56.548Z,4.30
2022-09-13T20:29:24.614Z,4.33
2022-09-13T20:31:51.528Z,4.07
2022-09-13T20:34:18.460Z,4.20
2022-09-13T20:36:47.168Z,4.60
2022-09-13T20:39:15.230Z,4.23
2022-09-13T20:41:43.364Z,4.37
2022-09-13T20:44:10.760Z,3.73
2022-09-13T20:46:39.271Z,3.73
2022-09-13T20:49:08.524Z,4.33
2022-09-13T20:51:35.386Z,3.90
2022-09-13T20:54:02.401Z,3.60
2022-09-13T20:56:30.516Z,3.63
2022-09-13T20:59:00.347Z,4.07
2022-09-13T21:01:29.599Z,3.90
2022-09-13T21:03:57.200Z,4.20
2022-09-13T21:06:26.540Z,3.97
2022-09-13T21:08:54.231Z,3.57
2022-09-13T21:11:24.355Z,3.60
2022-09-13T21:13:53.838Z,3.60
2022-09-13T21:16:23.653Z,3.70
2022-09-13T21:18:51.401Z,4.10
2022-09-13T21:21:23.665Z,3.90
2022-09-13T21:23:51.074Z,3.10
2022-09-13T21:26:21.414Z,3.20
2022-09-13T21:28:48.644Z,4.30
2022-09-13T21:31:22.658Z,3.87
2022-09-13T21:33:54.616Z,4.00
2022-09-13T21:36:21.469Z,3.70
2022-09-13T21:38:48.288Z,4.50
2022-09-13T21:41:17.635Z,4.40
2022-09-13T21:43:45.366Z,3.77
2022-09-13T21:46:17.631Z,3.67
2022-09-13T21:48:47.305Z,3.57
2022-09-13T21:51:20.609Z,3.60
2022-09-13T21:53:48.804Z,3.57
2022-09-13T21:56:18.822Z,3.57
2022-09-13T21:58:50.819Z,3.60
2022-09-13T22:01:19.430Z,3.30
2022-09-13T22:03:47.367Z,3.47
2022-09-13T22:06:15.326Z,3.00
2022-09-13T22:08:44.673Z,3.73
2022-09-13T22:11:16.839Z,3.23
2022-09-13T22:13:47.826Z,3.47
2022-09-13T22:16:20.305Z,4.07
2022-09-13T22:18:49.734Z,3.67
2022-09-13T22:21:19.591Z,4.20
2022-09-13T22:23:46.589Z,3.33
2022-09-13T22:26:19.898Z,3.33
2022-09-13T22:28:47.154Z,3.47
2022-09-13T22:31:17.106Z,3.17
2022-09-13T22:33:44.366Z,3.37
2022-09-13T22:36:13.714Z,3.50
2022-09-13T22:38:43.187Z,3.40
2022-09-13T22:41:16.238Z,3.23
2022-09-13T22:43:43.425Z,3.10
2022-09-13T22:46:13.169Z,3.50
2022-09-13T22:48:40.235Z,3.60
2022-09-13T22:51:09.832Z,3.70
2022-09-13T22:53:38.594Z,3.03
2022-09-13T22:56:18.243Z,3.20
2022-09-13T22:58:45.403Z,3.53
2022-09-13T23:01:18.602Z,3.83
2022-09-13T23:03:47.524Z,3.37
2022-09-13T23:06:19.046Z,3.53
2022-09-13T23:08:47.320Z,3.10
2022-09-13T23:11:21.357Z,3.60
2022-09-13T23:13:50.249Z,4.07
2022-09-13T23:16:23.802Z,3.30
2022-09-13T23:18:51.267Z,3.37
2022-09-13T23:21:23.688Z,3.40
2022-09-13T23:23:50.756Z,3.10
2022-09-13T23:26:19.950Z,3.50
2022-09-13T23:28:51.301Z,3.37
2022-09-13T23:31:20.719Z,3.90
2022-09-13T23:33:50.379Z,3.67
2022-09-13T23:36:19.675Z,3.23
2022-09-13T23:38:48.958Z,3.17
2022-09-13T23:41:16.477Z,3.57
2022-09-13T23:43:43.699Z,3.40
2022-09-13T23:46:10.995Z,3.30
2022-09-13T23:48:38.069Z,3.47
2022-09-13T23:51:07.910Z,3.10
2022-09-13T23:53:36.060Z,3.10
2022-09-13T23:56:04.151Z,3.37
2022-09-13T23:58:32.131Z,3.20
